sensor_id;sensor_type;location;lat;lon;timestamp;P1;durP1;ratioP1;P2;durP2;ratioP2
61903;SDS011;47857;52.270;6.804;2023-06-04T00:01:08;2.30;;;1.27;;
61903;SDS011;47857;52.270;6.804;2023-06-04T00:03:33;3.13;;;1.40;;
61903;SDS011;47857;52.270;6.804;2023-06-04T00:05:59;3.40;;;1.30;;
61903;SDS011;47857;52.270;6.804;2023-06-04T00:08:25;2.40;;;1.30;;
61903;SDS011;47857;52.270;6.804;2023-06-04T00:10:51;4.95;;;1.15;;
61903;SDS011;47857;52.270;6.804;2023-06-04T00:13:16;3.70;;;1.63;;
61903;SDS011;47857;52.270;6.804;2023-06-04T00:15:45;2.70;;;1.30;;
61903;SDS011;47857;52.270;6.804;2023-06-04T00:18:10;1.98;;;1.33;;
61903;SDS011;47857;52.270;6.804;2023-06-04T00:20:38;4.63;;;1.60;;
61903;SDS011;47857;52.270;6.804;2023-06-04T00:23:04;3.45;;;1.50;;
61903;SDS011;47857;52.270;6.804;2023-06-04T00:25:29;3.17;;;1.42;;
61903;SDS011;47857;52.270;6.804;2023-06-04T00:27:55;4.05;;;1.73;;
61903;SDS011;47857;52.270;6.804;2023-06-04T00:30:20;6.03;;;1.65;;
61903;SDS011;47857;52.270;6.804;2023-06-04T00:32:46;6.13;;;1.65;;
61903;SDS011;47857;52.270;6.804;2023-06-04T00:35:12;3.85;;;1.55;;
61903;SDS011;47857;52.270;6.804;2023-06-04T00:37:38;5.63;;;1.75;;
61903;SDS011;47857;52.270;6.804;2023-06-04T00:40:04;3.60;;;1.70;;
61903;SDS011;47857;52.270;6.804;2023-06-04T00:42:31;4.15;;;1.70;;
61903;SDS011;47857;52.270;6.804;2023-06-04T00:44:57;3.88;;;1.70;;
61903;SDS011;47857;52.270;6.804;2023-06-04T00:47:23;2.67;;;1.45;;
61903;SDS011;47857;52.270;6.804;2023-06-04T00:49:49;3.00;;;1.77;;
61903;SDS011;47857;52.270;6.804;2023-06-04T00:52:15;3.58;;;1.50;;
61903;SDS011;47857;52.270;6.804;2023-06-04T00:54:41;4.43;;;1.60;;
61903;SDS011;47857;52.270;6.804;2023-06-04T00:57:07;6.70;;;1.58;;
61903;SDS011;47857;52.270;6.804;2023-06-04T00:59:34;3.22;;;1.60;;
61903;SDS011;47857;52.270;6.804;2023-06-04T01:04:50;2.63;;;1.33;;
61903;SDS011;47857;52.270;6.804;2023-06-04T01:07:22;3.17;;;1.60;;
61903;SDS011;47857;52.270;6.804;2023-06-04T01:09:48;4.63;;;1.40;;
61903;SDS011;47857;52.270;6.804;2023-06-04T01:12:14;4.00;;;1.40;;
61903;SDS011;47857;52.270;6.804;2023-06-04T01:14:40;3.90;;;1.50;;
61903;SDS011;47857;52.270;6.804;2023-06-04T01:22:42;3.97;;;1.70;;
61903;SDS011;47857;52.270;6.804;2023-06-04T01:25:15;6.50;;;1.80;;
61903;SDS011;47857;52.270;6.804;2023-06-04T01:27:50;4.10;;;1.50;;
61903;SDS011;47857;52.270;6.804;2023-06-04T01:30:18;4.72;;;1.63;;
61903;SDS011;47857;52.270;6.804;2023-06-04T01:32:46;7.03;;;1.80;;
61903;SDS011;47857;52.270;6.804;2023-06-04T01:35:12;4.47;;;1.42;;
61903;SDS011;47857;52.270;6.804;2023-06-04T01:37:37;4.18;;;1.50;;
61903;SDS011;47857;52.270;6.804;2023-06-04T01:40:03;7.05;;;1.95;;
61903;SDS011;47857;52.270;6.804;2023-06-04T01:42:30;4.90;;;1.60;;
61903;SDS011;47857;52.270;6.804;2023-06-04T01:44:56;4.50;;;1.50;;
61903;SDS011;47857;52.270;6.804;2023-06-04T01:47:21;3.90;;;2.10;;
61903;SDS011;47857;52.270;6.804;2023-06-04T01:49:47;5.88;;;1.80;;
61903;SDS011;47857;52.270;6.804;2023-06-04T01:52:12;3.85;;;1.70;;
61903;SDS011;47857;52.270;6.804;2023-06-04T01:54:38;5.18;;;1.75;;
61903;SDS011;47857;52.270;6.804;2023-06-04T01:57:04;4.15;;;1.80;;
61903;SDS011;47857;52.270;6.804;2023-06-04T01:59:30;4.22;;;1.95;;
61903;SDS011;47857;52.270;6.804;2023-06-04T02:01:57;6.70;;;1.92;;
61903;SDS011;47857;52.270;6.804;2023-06-04T02:04:22;4.78;;;1.90;;
61903;SDS011;47857;52.270;6.804;2023-06-04T02:06:50;4.60;;;1.73;;
61903;SDS011;47857;52.270;6.804;2023-06-04T02:09:15;6.15;;;2.17;;
61903;SDS011;47857;52.270;6.804;2023-06-04T02:11:41;6.20;;;2.00;;
61903;SDS011;47857;52.270;6.804;2023-06-04T02:14:07;6.68;;;1.90;;
61903;SDS011;47857;52.270;6.804;2023-06-04T02:16:32;5.22;;;1.90;;
61903;SDS011;47857;52.270;6.804;2023-06-04T02:18:58;6.63;;;1.92;;
61903;SDS011;47857;52.270;6.804;2023-06-04T02:21:24;4.85;;;2.00;;
61903;SDS011;47857;52.270;6.804;2023-06-04T02:23:49;5.63;;;1.92;;
61903;SDS011;47857;52.270;6.804;2023-06-04T02:26:15;6.55;;;2.00;;
61903;SDS011;47857;52.270;6.804;2023-06-04T02:28:41;5.15;;;1.98;;
61903;SDS011;47857;52.270;6.804;2023-06-04T02:31:06;5.43;;;2.10;;
61903;SDS011;47857;52.270;6.804;2023-06-04T02:33:32;4.60;;;1.80;;
61903;SDS011;47857;52.270;6.804;2023-06-04T02:35:57;3.72;;;1.80;;
61903;SDS011;47857;52.270;6.804;2023-06-04T02:38:23;5.63;;;2.17;;
61903;SDS011;47857;52.270;6.804;2023-06-04T02:40:48;5.82;;;2.22;;
61903;SDS011;47857;52.270;6.804;2023-06-04T02:43:14;5.40;;;2.35;;
61903;SDS011;47857;52.270;6.804;2023-06-04T02:45:40;5.35;;;2.13;;
61903;SDS011;47857;52.270;6.804;2023-06-04T02:48:06;3.38;;;1.75;;
61903;SDS011;47857;52.270;6.804;2023-06-04T02:50:31;6.07;;;1.83;;
61903;SDS011;47857;52.270;6.804;2023-06-04T02:52:57;5.55;;;2.30;;
61903;SDS011;47857;52.270;6.804;2023-06-04T02:55:23;6.68;;;2.10;;
61903;SDS011;47857;52.270;6.804;2023-06-04T02:57:49;8.82;;;2.03;;
61903;SDS011;47857;52.270;6.804;2023-06-04T03:00:17;7.60;;;2.30;;
61903;SDS011;47857;52.270;6.804;2023-06-04T03:02:43;5.38;;;2.30;;
61903;SDS011;47857;52.270;6.804;2023-06-04T03:05:10;6.22;;;2.13;;
61903;SDS011;47857;52.270;6.804;2023-06-04T03:07:38;4.95;;;2.20;;
61903;SDS011;47857;52.270;6.804;2023-06-04T03:10:06;5.28;;;2.15;;
61903;SDS011;47857;52.270;6.804;2023-06-04T03:12:32;6.30;;;2.03;;
61903;SDS011;47857;52.270;6.804;2023-06-04T03:14:58;6.40;;;2.30;;
61903;SDS011;47857;52.270;6.804;2023-06-04T03:17:25;8.93;;;2.55;;
61903;SDS011;47857;52.270;6.804;2023-06-04T03:19:51;5.13;;;2.28;;
61903;SDS011;47857;52.270;6.804;2023-06-04T03:22:17;5.22;;;2.17;;
61903;SDS011;47857;52.270;6.804;2023-06-04T03:24:42;4.70;;;2.10;;
61903;SDS011;47857;52.270;6.804;2023-06-04T03:27:09;6.03;;;2.20;;
61903;SDS011;47857;52.270;6.804;2023-06-04T03:29:37;5.43;;;2.28;;
61903;SDS011;47857;52.270;6.804;2023-06-04T03:32:04;5.38;;;2.20;;
61903;SDS011;47857;52.270;6.804;2023-06-04T03:34:31;5.88;;;2.58;;
61903;SDS011;47857;52.270;6.804;2023-06-04T03:36:57;6.72;;;2.50;;
61903;SDS011;47857;52.270;6.804;2023-06-04T03:39:23;6.70;;;2.70;;
61903;SDS011;47857;52.270;6.804;2023-06-04T03:41:50;6.57;;;2.92;;
61903;SDS011;47857;52.270;6.804;2023-06-04T03:44:16;6.70;;;2.53;;
61903;SDS011;47857;52.270;6.804;2023-06-04T03:46:43;10.98;;;2.80;;
61903;SDS011;47857;52.270;6.804;2023-06-04T03:49:09;11.55;;;2.70;;
61903;SDS011;47857;52.270;6.804;2023-06-04T03:51:36;5.45;;;2.72;;
61903;SDS011;47857;52.270;6.804;2023-06-04T03:54:03;6.53;;;2.65;;
61903;SDS011;47857;52.270;6.804;2023-06-04T03:56:30;6.35;;;2.60;;
61903;SDS011;47857;52.270;6.804;2023-06-04T03:58:55;10.93;;;2.85;;
61903;SDS011;47857;52.270;6.804;2023-06-04T04:01:21;15.35;;;2.72;;
61903;SDS011;47857;52.270;6.804;2023-06-04T04:03:50;6.65;;;2.70;;
61903;SDS011;47857;52.270;6.804;2023-06-04T04:06:16;7.95;;;2.25;;
61903;SDS011;47857;52.270;6.804;2023-06-04T04:08:42;7.45;;;2.80;;
61903;SDS011;47857;52.270;6.804;2023-06-04T04:11:17;7.97;;;2.70;;
61903;SDS011;47857;52.270;6.804;2023-06-04T04:13:44;7.47;;;3.08;;
61903;SDS011;47857;52.270;6.804;2023-06-04T04:16:10;7.75;;;2.92;;
61903;SDS011;47857;52.270;6.804;2023-06-04T04:18:36;8.70;;;3.03;;
61903;SDS011;47857;52.270;6.804;2023-06-04T04:21:03;6.13;;;2.70;;
61903;SDS011;47857;52.270;6.804;2023-06-04T04:23:32;8.18;;;3.20;;
61903;SDS011;47857;52.270;6.804;2023-06-04T04:25:58;7.65;;;2.95;;
61903;SDS011;47857;52.270;6.804;2023-06-04T04:28:25;7.03;;;2.78;;
61903;SDS011;47857;52.270;6.804;2023-06-04T04:30:56;8.30;;;2.88;;
61903;SDS011;47857;52.270;6.804;2023-06-04T04:33:22;7.65;;;3.00;;
61903;SDS011;47857;52.270;6.804;2023-06-04T04:35:50;8.35;;;2.92;;
61903;SDS011;47857;52.270;6.804;2023-06-04T04:38:19;9.45;;;3.53;;
61903;SDS011;47857;52.270;6.804;2023-06-04T04:40:52;11.85;;;3.58;;
61903;SDS011;47857;52.270;6.804;2023-06-04T04:43:34;11.88;;;3.80;;
61903;SDS011;47857;52.270;6.804;2023-06-04T04:46:12;10.18;;;3.88;;
61903;SDS011;47857;52.270;6.804;2023-06-04T04:48:38;7.18;;;3.80;;
61903;SDS011;47857;52.270;6.804;2023-06-04T04:51:05;8.27;;;4.20;;
61903;SDS011;47857;52.270;6.804;2023-06-04T04:53:31;7.25;;;3.13;;
61903;SDS011;47857;52.270;6.804;2023-06-04T04:55:57;10.52;;;3.75;;
61903;SDS011;47857;52.270;6.804;2023-06-04T04:58:23;6.47;;;3.15;;
61903;SDS011;47857;52.270;6.804;2023-06-04T05:00:49;8.68;;;3.10;;
61903;SDS011;47857;52.270;6.804;2023-06-04T05:03:15;7.47;;;3.40;;
61903;SDS011;47857;52.270;6.804;2023-06-04T05:05:41;7.05;;;3.40;;
61903;SDS011;47857;52.270;6.804;2023-06-04T05:08:08;6.47;;;3.17;;
61903;SDS011;47857;52.270;6.804;2023-06-04T05:10:38;8.38;;;3.67;;
61903;SDS011;47857;52.270;6.804;2023-06-04T05:13:05;10.20;;;3.13;;
61903;SDS011;47857;52.270;6.804;2023-06-04T05:15:38;11.45;;;3.60;;
61903;SDS011;47857;52.270;6.804;2023-06-04T05:18:06;7.72;;;3.05;;
61903;SDS011;47857;52.270;6.804;2023-06-04T05:20:35;10.38;;;3.60;;
61903;SDS011;47857;52.270;6.804;2023-06-04T05:23:03;7.45;;;3.25;;
61903;SDS011;47857;52.270;6.804;2023-06-04T05:25:30;7.80;;;3.50;;
61903;SDS011;47857;52.270;6.804;2023-06-04T05:27:57;10.52;;;3.45;;
61903;SDS011;47857;52.270;6.804;2023-06-04T05:30:22;11.13;;;3.45;;
61903;SDS011;47857;52.270;6.804;2023-06-04T05:32:48;7.43;;;3.40;;
61903;SDS011;47857;52.270;6.804;2023-06-04T05:35:17;8.02;;;3.10;;
61903;SDS011;47857;52.270;6.804;2023-06-04T05:37:43;9.75;;;3.10;;
61903;SDS011;47857;52.270;6.804;2023-06-04T05:40:11;6.55;;;3.30;;
61903;SDS011;47857;52.270;6.804;2023-06-04T05:42:38;6.35;;;3.10;;
61903;SDS011;47857;52.270;6.804;2023-06-04T05:45:04;8.25;;;3.05;;
61903;SDS011;47857;52.270;6.804;2023-06-04T05:47:33;6.32;;;2.60;;
61903;SDS011;47857;52.270;6.804;2023-06-04T05:49:59;8.05;;;2.88;;
61903;SDS011;47857;52.270;6.804;2023-06-04T05:52:24;8.20;;;2.95;;
61903;SDS011;47857;52.270;6.804;2023-06-04T05:54:50;6.93;;;2.42;;
61903;SDS011;47857;52.270;6.804;2023-06-04T05:57:16;6.22;;;2.90;;
61903;SDS011;47857;52.270;6.804;2023-06-04T05:59:42;10.32;;;3.10;;
61903;SDS011;47857;52.270;6.804;2023-06-04T06:02:11;7.57;;;3.10;;
61903;SDS011;47857;52.270;6.804;2023-06-04T06:04:39;10.25;;;2.95;;
61903;SDS011;47857;52.270;6.804;2023-06-04T06:07:04;5.75;;;2.80;;
61903;SDS011;47857;52.270;6.804;2023-06-04T06:09:30;6.88;;;2.78;;
61903;SDS011;47857;52.270;6.804;2023-06-04T06:11:55;6.10;;;3.00;;
61903;SDS011;47857;52.270;6.804;2023-06-04T06:14:21;6.35;;;3.10;;
61903;SDS011;47857;52.270;6.804;2023-06-04T06:16:48;8.15;;;3.05;;
61903;SDS011;47857;52.270;6.804;2023-06-04T06:19:15;4.47;;;2.72;;
61903;SDS011;47857;52.270;6.804;2023-06-04T06:21:41;6.03;;;2.50;;
61903;SDS011;47857;52.270;6.804;2023-06-04T06:24:07;8.52;;;2.78;;
61903;SDS011;47857;52.270;6.804;2023-06-04T06:26:33;7.35;;;3.15;;
61903;SDS011;47857;52.270;6.804;2023-06-04T06:29:00;4.80;;;2.63;;
61903;SDS011;47857;52.270;6.804;2023-06-04T06:31:27;5.68;;;3.08;;
61903;SDS011;47857;52.270;6.804;2023-06-04T06:33:52;7.82;;;2.85;;
61903;SDS011;47857;52.270;6.804;2023-06-04T06:36:18;7.45;;;3.30;;
61903;SDS011;47857;52.270;6.804;2023-06-04T06:38:44;6.82;;;3.13;;
61903;SDS011;47857;52.270;6.804;2023-06-04T06:41:13;7.35;;;3.10;;
61903;SDS011;47857;52.270;6.804;2023-06-04T06:43:38;7.47;;;3.33;;
61903;SDS011;47857;52.270;6.804;2023-06-04T06:46:04;9.35;;;3.13;;
61903;SDS011;47857;52.270;6.804;2023-06-04T06:48:30;10.48;;;2.80;;
61903;SDS011;47857;52.270;6.804;2023-06-04T06:50:55;6.05;;;3.10;;
61903;SDS011;47857;52.270;6.804;2023-06-04T06:53:21;7.40;;;2.97;;
61903;SDS011;47857;52.270;6.804;2023-06-04T06:55:47;6.60;;;2.88;;
61903;SDS011;47857;52.270;6.804;2023-06-04T06:58:12;8.73;;;3.33;;
61903;SDS011;47857;52.270;6.804;2023-06-04T07:00:38;7.88;;;2.88;;
61903;SDS011;47857;52.270;6.804;2023-06-04T07:03:03;7.38;;;3.20;;
61903;SDS011;47857;52.270;6.804;2023-06-04T07:05:29;7.32;;;2.78;;
61903;SDS011;47857;52.270;6.804;2023-06-04T07:07:55;8.77;;;2.75;;
61903;SDS011;47857;52.270;6.804;2023-06-04T07:10:22;6.97;;;3.03;;
61903;SDS011;47857;52.270;6.804;2023-06-04T07:12:48;6.93;;;2.90;;
61903;SDS011;47857;52.270;6.804;2023-06-04T07:15:13;7.55;;;2.80;;
61903;SDS011;47857;52.270;6.804;2023-06-04T07:17:39;7.05;;;3.00;;
61903;SDS011;47857;52.270;6.804;2023-06-04T07:20:05;8.70;;;5.10;;
61903;SDS011;47857;52.270;6.804;2023-06-04T07:22:32;8.23;;;3.67;;
61903;SDS011;47857;52.270;6.804;2023-06-04T07:24:58;8.07;;;3.17;;
61903;SDS011;47857;52.270;6.804;2023-06-04T07:27:23;7.03;;;3.05;;
61903;SDS011;47857;52.270;6.804;2023-06-04T07:29:49;11.02;;;3.17;;
61903;SDS011;47857;52.270;6.804;2023-06-04T07:32:14;6.35;;;2.70;;
61903;SDS011;47857;52.270;6.804;2023-06-04T07:34:40;6.72;;;2.55;;
61903;SDS011;47857;52.270;6.804;2023-06-04T07:37:05;6.18;;;2.53;;
61903;SDS011;47857;52.270;6.804;2023-06-04T07:39:31;7.57;;;2.25;;
61903;SDS011;47857;52.270;6.804;2023-06-04T07:41:57;4.32;;;2.33;;
61903;SDS011;47857;52.270;6.804;2023-06-04T07:44:22;6.40;;;2.63;;
61903;SDS011;47857;52.270;6.804;2023-06-04T07:46:48;5.95;;;2.60;;
61903;SDS011;47857;52.270;6.804;2023-06-04T07:49:13;4.82;;;2.55;;
61903;SDS011;47857;52.270;6.804;2023-06-04T07:51:40;5.78;;;2.55;;
61903;SDS011;47857;52.270;6.804;2023-06-04T07:54:05;7.15;;;2.67;;
61903;SDS011;47857;52.270;6.804;2023-06-04T07:56:31;7.03;;;2.40;;
61903;SDS011;47857;52.270;6.804;2023-06-04T07:58:56;7.45;;;2.45;;
61903;SDS011;47857;52.270;6.804;2023-06-04T08:01:22;5.90;;;2.28;;
61903;SDS011;47857;52.270;6.804;2023-06-04T08:03:49;5.55;;;2.10;;
61903;SDS011;47857;52.270;6.804;2023-06-04T08:06:22;8.10;;;2.42;;
61903;SDS011;47857;52.270;6.804;2023-06-04T08:08:49;5.60;;;2.08;;
61903;SDS011;47857;52.270;6.804;2023-06-04T08:11:18;5.40;;;2.28;;
61903;SDS011;47857;52.270;6.804;2023-06-04T08:13:51;6.15;;;2.35;;
61903;SDS011;47857;52.270;6.804;2023-06-04T08:16:20;5.80;;;2.47;;
61903;SDS011;47857;52.270;6.804;2023-06-04T08:18:45;4.78;;;2.55;;
61903;SDS011;47857;52.270;6.804;2023-06-04T08:21:11;5.72;;;2.30;;
61903;SDS011;47857;52.270;6.804;2023-06-04T08:23:37;4.82;;;2.50;;
61903;SDS011;47857;52.270;6.804;2023-06-04T08:26:02;8.23;;;2.08;;
61903;SDS011;47857;52.270;6.804;2023-06-04T08:28:28;5.00;;;2.10;;
61903;SDS011;47857;52.270;6.804;2023-06-04T08:30:53;4.68;;;1.83;;
61903;SDS011;47857;52.270;6.804;2023-06-04T08:33:19;4.90;;;2.05;;
61903;SDS011;47857;52.270;6.804;2023-06-04T08:35:45;6.18;;;2.10;;
61903;SDS011;47857;52.270;6.804;2023-06-04T08:38:11;6.10;;;2.13;;
61903;SDS011;47857;52.270;6.804;2023-06-04T08:40:36;5.40;;;1.92;;
61903;SDS011;47857;52.270;6.804;2023-06-04T08:43:02;4.40;;;1.90;;
61903;SDS011;47857;52.270;6.804;2023-06-04T08:45:28;4.05;;;1.73;;
61903;SDS011;47857;52.270;6.804;2023-06-04T08:47:57;7.15;;;1.60;;
61903;SDS011;47857;52.270;6.804;2023-06-04T08:50:24;6.32;;;1.60;;
61903;SDS011;47857;52.270;6.804;2023-06-04T08:52:53;6.70;;;1.75;;
61903;SDS011;47857;52.270;6.804;2023-06-04T08:55:22;4.90;;;1.92;;
61903;SDS011;47857;52.270;6.804;2023-06-04T08:57:51;3.78;;;1.55;;
61903;SDS011;47857;52.270;6.804;2023-06-04T09:00:17;4.78;;;1.60;;
61903;SDS011;47857;52.270;6.804;2023-06-04T09:02:43;4.13;;;1.50;;
61903;SDS011;47857;52.270;6.804;2023-06-04T09:05:10;6.63;;;1.90;;
61903;SDS011;47857;52.270;6.804;2023-06-04T09:07:44;5.28;;;1.50;;
61903;SDS011;47857;52.270;6.804;2023-06-04T09:10:11;4.50;;;1.60;;
61903;SDS011;47857;52.270;6.804;2023-06-04T09:12:39;3.10;;;1.20;;
61903;SDS011;47857;52.270;6.804;2023-06-04T09:15:07;9.40;;;1.55;;
61903;SDS011;47857;52.270;6.804;2023-06-04T09:17:33;2.92;;;1.15;;
61903;SDS011;47857;52.270;6.804;2023-06-04T09:20:00;4.38;;;1.58;;
61903;SDS011;47857;52.270;6.804;2023-06-04T09:22:34;4.97;;;1.52;;
61903;SDS011;47857;52.270;6.804;2023-06-04T09:25:03;4.68;;;1.60;;
61903;SDS011;47857;52.270;6.804;2023-06-04T09:27:36;3.45;;;1.58;;
61903;SDS011;47857;52.270;6.804;2023-06-04T09:32:29;3.30;;;1.25;;
61903;SDS011;47857;52.270;6.804;2023-06-04T09:34:56;2.47;;;1.30;;
61903;SDS011;47857;52.270;6.804;2023-06-04T09:37:34;4.68;;;1.45;;
61903;SDS011;47857;52.270;6.804;2023-06-04T09:40:00;2.70;;;1.55;;
61903;SDS011;47857;52.270;6.804;2023-06-04T09:42:25;2.53;;;1.20;;
61903;SDS011;47857;52.270;6.804;2023-06-04T09:44:51;6.80;;;1.25;;
61903;SDS011;47857;52.270;6.804;2023-06-04T09:47:17;2.17;;;1.13;;
61903;SDS011;47857;52.270;6.804;2023-06-04T09:49:42;1.67;;;0.90;;
61903;SDS011;47857;52.270;6.804;2023-06-04T09:52:09;3.50;;;1.73;;
61903;SDS011;47857;52.270;6.804;2023-06-04T09:54:35;4.95;;;1.50;;
61903;SDS011;47857;52.270;6.804;2023-06-04T09:57:05;2.38;;;1.45;;
61903;SDS011;47857;52.270;6.804;2023-06-04T09:59:37;2.33;;;1.50;;
61903;SDS011;47857;52.270;6.804;2023-06-04T10:02:04;3.03;;;1.30;;
61903;SDS011;47857;52.270;6.804;2023-06-04T10:04:32;4.57;;;2.80;;
61903;SDS011;47857;52.270;6.804;2023-06-04T10:06:59;3.17;;;1.10;;
61903;SDS011;47857;52.270;6.804;2023-06-04T10:09:25;3.17;;;1.17;;
61903;SDS011;47857;52.270;6.804;2023-06-04T10:11:53;3.42;;;1.02;;
61903;SDS011;47857;52.270;6.804;2023-06-04T10:14:22;3.65;;;1.20;;
61903;SDS011;47857;52.270;6.804;2023-06-04T10:16:49;3.00;;;1.10;;
61903;SDS011;47857;52.270;6.804;2023-06-04T10:19:16;3.20;;;1.20;;
61903;SDS011;47857;52.270;6.804;2023-06-04T10:21:43;3.72;;;1.20;;
61903;SDS011;47857;52.270;6.804;2023-06-04T10:24:09;3.42;;;1.10;;
61903;SDS011;47857;52.270;6.804;2023-06-04T10:26:34;1.65;;;1.20;;
61903;SDS011;47857;52.270;6.804;2023-06-04T10:29:03;2.45;;;1.10;;
61903;SDS011;47857;52.270;6.804;2023-06-04T10:31:31;3.20;;;1.40;;
61903;SDS011;47857;52.270;6.804;2023-06-04T10:34:01;4.80;;;1.23;;
61903;SDS011;47857;52.270;6.804;2023-06-04T10:36:26;3.28;;;1.30;;
61903;SDS011;47857;52.270;6.804;2023-06-04T10:38:54;4.93;;;1.08;;
61903;SDS011;47857;52.270;6.804;2023-06-04T10:41:20;2.75;;;1.10;;
61903;SDS011;47857;52.270;6.804;2023-06-04T10:43:51;3.40;;;1.20;;
61903;SDS011;47857;52.270;6.804;2023-06-04T10:46:18;3.60;;;1.30;;
61903;SDS011;47857;52.270;6.804;2023-06-04T10:48:53;3.75;;;1.13;;
61903;SDS011;47857;52.270;6.804;2023-06-04T10:51:34;3.00;;;1.10;;
61903;SDS011;47857;52.270;6.804;2023-06-04T10:54:02;3.13;;;1.40;;
61903;SDS011;47857;52.270;6.804;2023-06-04T10:56:28;2.72;;;1.30;;
61903;SDS011;47857;52.270;6.804;2023-06-04T10:58:57;4.18;;;1.58;;
61903;SDS011;47857;52.270;6.804;2023-06-04T11:01:26;3.97;;;1.30;;
61903;SDS011;47857;52.270;6.804;2023-06-04T11:03:53;2.45;;;1.10;;
61903;SDS011;47857;52.270;6.804;2023-06-04T11:06:19;4.22;;;1.25;;
61903;SDS011;47857;52.270;6.804;2023-06-04T11:08:46;2.40;;;1.33;;
61903;SDS011;47857;52.270;6.804;2023-06-04T11:11:12;2.83;;;1.20;;
61903;SDS011;47857;52.270;6.804;2023-06-04T11:13:41;3.28;;;1.20;;
61903;SDS011;47857;52.270;6.804;2023-06-04T11:16:19;5.50;;;1.38;;
61903;SDS011;47857;52.270;6.804;2023-06-04T11:18:55;4.57;;;1.13;;
61903;SDS011;47857;52.270;6.804;2023-06-04T11:21:21;4.82;;;1.13;;
61903;SDS011;47857;52.270;6.804;2023-06-04T11:23:47;3.05;;;1.35;;
61903;SDS011;47857;52.270;6.804;2023-06-04T11:26:13;1.67;;;1.30;;
61903;SDS011;47857;52.270;6.804;2023-06-04T11:28:39;3.08;;;1.33;;
61903;SDS011;47857;52.270;6.804;2023-06-04T11:31:05;2.00;;;1.20;;
61903;SDS011;47857;52.270;6.804;2023-06-04T11:33:46;4.15;;;1.23;;
61903;SDS011;47857;52.270;6.804;2023-06-04T11:36:25;3.55;;;1.20;;
61903;SDS011;47857;52.270;6.804;2023-06-04T11:41:22;2.55;;;1.30;;
61903;SDS011;47857;52.270;6.804;2023-06-04T11:43:48;2.90;;;1.30;;
61903;SDS011;47857;52.270;6.804;2023-06-04T11:46:13;3.78;;;1.17;;
61903;SDS011;47857;52.270;6.804;2023-06-04T11:48:39;2.67;;;1.50;;
61903;SDS011;47857;52.270;6.804;2023-06-04T11:51:06;3.95;;;1.25;;
61903;SDS011;47857;52.270;6.804;2023-06-04T11:53:33;4.72;;;1.40;;
61903;SDS011;47857;52.270;6.804;2023-06-04T11:56:00;2.42;;;1.30;;
61903;SDS011;47857;52.270;6.804;2023-06-04T11:58:26;2.97;;;1.30;;
61903;SDS011;47857;52.270;6.804;2023-06-04T12:00:51;3.50;;;1.40;;
61903;SDS011;47857;52.270;6.804;2023-06-04T12:03:17;6.35;;;1.23;;
61903;SDS011;47857;52.270;6.804;2023-06-04T12:05:42;3.05;;;1.30;;
61903;SDS011;47857;52.270;6.804;2023-06-04T12:08:08;3.50;;;1.50;;
61903;SDS011;47857;52.270;6.804;2023-06-04T12:10:41;3.70;;;1.30;;
61903;SDS011;47857;52.270;6.804;2023-06-04T12:13:07;3.35;;;1.40;;
61903;SDS011;47857;52.270;6.804;2023-06-04T12:15:33;3.35;;;1.00;;
61903;SDS011;47857;52.270;6.804;2023-06-04T12:17:59;2.35;;;1.23;;
61903;SDS011;47857;52.270;6.804;2023-06-04T12:20:40;2.65;;;1.25;;
61903;SDS011;47857;52.270;6.804;2023-06-04T12:25:44;3.38;;;1.70;;
61903;SDS011;47857;52.270;6.804;2023-06-04T12:28:18;2.88;;;1.80;;
61903;SDS011;47857;52.270;6.804;2023-06-04T12:30:44;4.70;;;3.28;;
61903;SDS011;47857;52.270;6.804;2023-06-04T12:33:10;3.67;;;2.05;;
61903;SDS011;47857;52.270;6.804;2023-06-04T12:35:36;3.30;;;1.52;;
61903;SDS011;47857;52.270;6.804;2023-06-04T12:38:02;6.38;;;3.65;;
61903;SDS011;47857;52.270;6.804;2023-06-04T12:40:29;3.58;;;1.40;;
61903;SDS011;47857;52.270;6.804;2023-06-04T12:42:54;4.57;;;1.80;;
61903;SDS011;47857;52.270;6.804;2023-06-04T12:45:20;4.50;;;2.22;;
61903;SDS011;47857;52.270;6.804;2023-06-04T12:47:45;2.05;;;1.33;;
61903;SDS011;47857;52.270;6.804;2023-06-04T12:50:12;1.90;;;1.40;;
61903;SDS011;47857;52.270;6.804;2023-06-04T12:52:38;2.25;;;1.30;;
61903;SDS011;47857;52.270;6.804;2023-06-04T12:55:03;1.85;;;1.20;;
61903;SDS011;47857;52.270;6.804;2023-06-04T12:57:29;1.98;;;1.30;;
61903;SDS011;47857;52.270;6.804;2023-06-04T12:59:55;3.25;;;1.48;;
61903;SDS011;47857;52.270;6.804;2023-06-04T13:02:22;1.88;;;1.35;;
61903;SDS011;47857;52.270;6.804;2023-06-04T13:04:47;3.03;;;1.40;;
61903;SDS011;47857;52.270;6.804;2023-06-04T13:07:18;3.35;;;1.40;;
61903;SDS011;47857;52.270;6.804;2023-06-04T13:09:43;6.15;;;1.63;;
61903;SDS011;47857;52.270;6.804;2023-06-04T13:12:09;2.42;;;1.40;;
61903;SDS011;47857;52.270;6.804;2023-06-04T13:14:34;2.05;;;1.15;;
61903;SDS011;47857;52.270;6.804;2023-06-04T13:17:00;4.10;;;1.60;;
61903;SDS011;47857;52.270;6.804;2023-06-04T13:19:26;2.33;;;1.40;;
61903;SDS011;47857;52.270;6.804;2023-06-04T13:21:51;1.88;;;1.33;;
61903;SDS011;47857;52.270;6.804;2023-06-04T13:24:17;2.20;;;1.40;;
61903;SDS011;47857;52.270;6.804;2023-06-04T13:26:42;2.75;;;1.40;;
61903;SDS011;47857;52.270;6.804;2023-06-04T13:29:17;1.75;;;1.20;;
61903;SDS011;47857;52.270;6.804;2023-06-04T13:31:49;5.32;;;1.40;;
61903;SDS011;47857;52.270;6.804;2023-06-04T13:34:15;2.63;;;1.25;;
61903;SDS011;47857;52.270;6.804;2023-06-04T13:36:41;5.97;;;1.40;;
61903;SDS011;47857;52.270;6.804;2023-06-04T13:39:06;2.22;;;1.40;;
61903;SDS011;47857;52.270;6.804;2023-06-04T13:41:32;4.57;;;1.45;;
61903;SDS011;47857;52.270;6.804;2023-06-04T13:43:57;3.20;;;1.45;;
61903;SDS011;47857;52.270;6.804;2023-06-04T13:46:23;4.18;;;1.38;;
61903;SDS011;47857;52.270;6.804;2023-06-04T13:48:48;4.30;;;1.50;;
61903;SDS011;47857;52.270;6.804;2023-06-04T13:51:14;3.15;;;1.30;;
61903;SDS011;47857;52.270;6.804;2023-06-04T13:53:39;2.83;;;1.65;;
61903;SDS011;47857;52.270;6.804;2023-06-04T13:56:05;1.98;;;1.25;;
61903;SDS011;47857;52.270;6.804;2023-06-04T13:58:30;3.08;;;1.30;;
61903;SDS011;47857;52.270;6.804;2023-06-04T14:00:57;3.45;;;1.50;;
61903;SDS011;47857;52.270;6.804;2023-06-04T14:03:22;5.00;;;1.58;;
61903;SDS011;47857;52.270;6.804;2023-06-04T14:05:48;1.83;;;1.27;;
61903;SDS011;47857;52.270;6.804;2023-06-04T14:08:13;2.28;;;1.40;;
61903;SDS011;47857;52.270;6.804;2023-06-04T14:10:39;3.63;;;1.40;;
61903;SDS011;47857;52.270;6.804;2023-06-04T14:13:08;3.88;;;1.50;;
61903;SDS011;47857;52.270;6.804;2023-06-04T14:15:34;2.55;;;1.42;;
61903;SDS011;47857;52.270;6.804;2023-06-04T14:17:59;10.02;;;1.70;;
61903;SDS011;47857;52.270;6.804;2023-06-04T14:20:26;3.05;;;1.38;;
61903;SDS011;47857;52.270;6.804;2023-06-04T14:22:51;2.92;;;1.52;;
61903;SDS011;47857;52.270;6.804;2023-06-04T14:25:17;2.92;;;1.52;;
61903;SDS011;47857;52.270;6.804;2023-06-04T14:27:42;4.97;;;1.60;;
61903;SDS011;47857;52.270;6.804;2023-06-04T14:30:09;3.05;;;1.42;;
61903;SDS011;47857;52.270;6.804;2023-06-04T14:32:35;1.52;;;1.20;;
61903;SDS011;47857;52.270;6.804;2023-06-04T14:35:01;2.10;;;1.40;;
61903;SDS011;47857;52.270;6.804;2023-06-04T14:37:27;2.40;;;1.30;;
61903;SDS011;47857;52.270;6.804;2023-06-04T14:39:52;3.53;;;1.45;;
61903;SDS011;47857;52.270;6.804;2023-06-04T14:42:18;2.90;;;1.50;;
61903;SDS011;47857;52.270;6.804;2023-06-04T14:44:43;2.30;;;1.70;;
61903;SDS011;47857;52.270;6.804;2023-06-04T14:47:10;2.22;;;1.40;;
61903;SDS011;47857;52.270;6.804;2023-06-04T14:49:35;5.57;;;1.67;;
61903;SDS011;47857;52.270;6.804;2023-06-04T14:52:02;4.20;;;1.38;;
61903;SDS011;47857;52.270;6.804;2023-06-04T14:54:28;4.53;;;1.80;;
61903;SDS011;47857;52.270;6.804;2023-06-04T14:56:57;2.53;;;1.70;;
61903;SDS011;47857;52.270;6.804;2023-06-04T14:59:23;5.63;;;1.83;;
61903;SDS011;47857;52.270;6.804;2023-06-04T15:01:48;2.53;;;1.75;;